Main page
METAR-TAF:

METAR-TAF

Airports :

Santorini National Airport

Santorini, Greece

latitude: 36-24N, longitude: 025-29E, elevation: 38 m

Current weather observation

The report was made 14 minutes ago, at 07:50 UTC
Wind 10 kt from the North
Temperature 21°C
Humidity 69%
Pressure 1018 hPa
Visibility 10 km or more
Scattered clouds at a height of 2000 ft

METAR: LGSR 150750Z 36010KT 9999 SCT020 21/15 Q1018 RMK FEW080 SCT180 BLU

Time: 11:04 (08:04 UTC)

Forecast

The report was made 3 hours and 4 minutes ago, at 05:00 UTC
Forecast valid from 15 at 06 UTC to 16 at 06 UTC
Wind 16 kt from the Northwest
Visibility 10 km or more
Scattered clouds at a height of 2000 ft

TAF: LGSR 150500Z 1506/1606 32016KT 9999 SCT020

Weather observations and forecasts of more than 4000 airports (METAR and TAF reports).

The available stations are represented by yellow and red dots on the map.

Hover mouse over dot to see the name of the station.

Then click to see weather observations and forecasts.

To change the map : click on the green buttons with a black cross to zoom in, on the green button with a dash to zoom out, or on the green arrows for adjacent maps.


METAR-TAF: